createdAt,value
2018-12-29T00:02:24.911Z,19.63
2018-12-29T00:04:53.371Z,19.70
2018-12-29T00:07:21.816Z,19.40
2018-12-29T00:09:50.299Z,20.40
2018-12-29T00:12:18.795Z,19.33
2018-12-29T00:14:47.260Z,20.33
2018-12-29T00:17:15.704Z,18.40
2018-12-29T00:19:46.152Z,21.07
2018-12-29T00:22:14.613Z,21.83
2018-12-29T00:24:43.054Z,19.47
2018-12-29T00:27:11.507Z,20.40
2018-12-29T00:29:39.955Z,19.87
2018-12-29T00:32:08.434Z,20.27
2018-12-29T00:34:36.908Z,19.77
2018-12-29T00:37:06.330Z,19.17
2018-12-29T00:39:34.786Z,20.73
2018-12-29T00:42:03.224Z,20.37
2018-12-29T00:44:31.678Z,20.50
2018-12-29T00:47:00.111Z,19.40
2018-12-29T00:49:28.565Z,19.80
2018-12-29T00:51:57.051Z,19.67
2018-12-29T00:54:26.473Z,19.23
2018-12-29T00:56:55.192Z,18.87
2018-12-29T00:59:23.644Z,17.40
2018-12-29T01:01:52.082Z,17.37
2018-12-29T01:04:20.516Z,18.53
2018-12-29T01:06:49.040Z,18.83
2018-12-29T01:09:17.511Z,16.70
2018-12-29T01:12:05.326Z,18.53
2018-12-29T01:14:33.763Z,17.73
2018-12-29T01:17:02.235Z,16.10
2018-12-29T01:19:30.688Z,17.17
2018-12-29T01:22:00.763Z,16.70
2018-12-29T01:24:29.223Z,18.47
2018-12-29T01:26:57.669Z,16.33
2018-12-29T01:29:26.117Z,16.97
2018-12-29T01:31:54.547Z,15.93
2018-12-29T01:34:23.008Z,17.67
2018-12-29T01:36:51.452Z,16.17
2018-12-29T01:39:19.890Z,16.43
2018-12-29T01:41:48.334Z,17.57
2018-12-29T01:44:16.796Z,17.70
2018-12-29T01:46:45.232Z,17.97
2018-12-29T01:49:13.674Z,16.37
2018-12-29T01:51:42.135Z,17.10
2018-12-29T01:54:10.566Z,17.10
2018-12-29T01:56:58.364Z,16.30
2018-12-29T01:59:26.805Z,15.50
2018-12-29T02:01:55.270Z,17.83
2018-12-29T02:04:43.044Z,17.43
2018-12-29T02:07:11.495Z,17.73
2018-12-29T02:09:39.931Z,16.03
2018-12-29T02:12:08.384Z,16.97
2018-12-29T02:14:36.820Z,17.27
2018-12-29T02:17:05.286Z,18.60
2018-12-29T02:19:33.724Z,16.30
2018-12-29T02:22:02.186Z,15.83
2018-12-29T02:24:30.707Z,17.80
2018-12-29T02:26:59.215Z,17.60
2018-12-29T02:29:47.007Z,17.70
2018-12-29T02:32:15.443Z,17.07
2018-12-29T02:34:46.827Z,17.80
2018-12-29T02:37:15.342Z,17.37
2018-12-29T02:39:44.435Z,18.90
2018-12-29T02:42:13.162Z,17.50
2018-12-29T02:44:42.030Z,16.73
2018-12-29T02:47:10.564Z,18.63
2018-12-29T02:49:39.113Z,18.50
2018-12-29T02:52:07.654Z,18.30
2018-12-29T02:54:36.123Z,17.07
2018-12-29T02:57:04.668Z,16.70
2018-12-29T02:59:33.193Z,17.53
2018-12-29T03:02:02.070Z,17.37
2018-12-29T03:04:30.680Z,17.37
2018-12-29T03:06:59.213Z,17.27
2018-12-29T03:09:27.648Z,17.20
2018-12-29T03:11:56.107Z,17.20
2018-12-29T03:14:24.564Z,18.30
2018-12-29T03:16:53.084Z,17.40
2018-12-29T03:19:21.519Z,18.27
2018-12-29T03:21:50.255Z,18.40
2018-12-29T03:24:18.778Z,17.00
2018-12-29T03:26:47.413Z,17.60
2018-12-29T03:29:22.303Z,18.07
2018-12-29T03:31:50.947Z,17.00
2018-12-29T03:34:19.447Z,16.83
2018-12-29T03:36:47.880Z,18.70
2018-12-29T03:39:16.343Z,17.60
2018-12-29T03:41:44.776Z,18.77
2018-12-29T03:44:13.232Z,18.37
2018-12-29T03:46:41.763Z,19.50
2018-12-29T03:49:10.226Z,18.70
2018-12-29T03:51:38.965Z,18.53
2018-12-29T03:54:07.432Z,19.77
2018-12-29T03:56:55.209Z,18.63
2018-12-29T03:59:23.744Z,18.13
2018-12-29T04:01:52.188Z,19.60
2018-12-29T04:04:20.648Z,18.30
2018-12-29T04:06:49.083Z,20.80
2018-12-29T04:09:34.172Z,18.10
2018-12-29T04:12:05.421Z,18.67
2018-12-29T04:14:35.692Z,20.10
2018-12-29T04:17:04.212Z,19.90
2018-12-29T04:19:52.000Z,18.83
2018-12-29T04:22:20.436Z,19.40
2018-12-29T04:24:48.900Z,19.87
2018-12-29T04:27:24.039Z,19.87
2018-12-29T04:29:52.489Z,19.87
2018-12-29T04:32:20.921Z,19.20
2018-12-29T04:34:49.379Z,20.77
2018-12-29T04:37:17.815Z,20.40
2018-12-29T04:39:46.278Z,19.17
2018-12-29T04:42:25.882Z,21.03
2018-12-29T04:44:54.344Z,19.20
2018-12-29T04:47:22.781Z,20.30
2018-12-29T04:49:51.224Z,20.40
2018-12-29T04:52:19.684Z,19.37
2018-12-29T04:54:48.322Z,20.87
2018-12-29T04:57:16.767Z,20.60
2018-12-29T04:59:45.202Z,21.10
2018-12-29T05:02:33.001Z,22.50
2018-12-29T05:07:44.799Z,20.67
2018-12-29T05:10:13.235Z,19.60
2018-12-29T05:12:41.700Z,20.73
2018-12-29T05:15:10.139Z,19.90
2018-12-29T05:17:38.604Z,21.40
2018-12-29T05:20:07.104Z,21.83
2018-12-29T05:22:35.547Z,20.60
2018-12-29T05:25:04.016Z,20.63
2018-12-29T05:27:32.456Z,21.50
2018-12-29T05:30:00.927Z,22.60
2018-12-29T05:32:48.700Z,23.00
2018-12-29T05:35:17.152Z,22.20
2018-12-29T05:37:45.658Z,22.43
2018-12-29T05:40:14.180Z,23.97
2018-12-29T05:42:42.630Z,23.97
2018-12-29T05:45:11.067Z,23.43
2018-12-29T05:47:39.527Z,24.60
2018-12-29T05:50:08.031Z,24.10
2018-12-29T05:52:37.555Z,26.10
2018-12-29T05:55:11.751Z,24.77
2018-12-29T05:57:40.208Z,25.50
2018-12-29T06:00:08.716Z,24.83
2018-12-29T06:02:37.271Z,23.30
2018-12-29T06:05:05.747Z,25.77
2018-12-29T06:07:34.210Z,25.50
2018-12-29T06:10:02.668Z,25.37
2018-12-29T06:12:31.111Z,25.00
2018-12-29T06:14:59.567Z,23.70
2018-12-29T06:17:28.091Z,24.77
2018-12-29T06:19:56.544Z,26.00
2018-12-29T06:22:24.992Z,25.87
2018-12-29T06:24:53.439Z,25.20
2018-12-29T06:27:21.883Z,24.87
2018-12-29T06:29:50.387Z,26.87
2018-12-29T06:32:18.867Z,25.73
2018-12-29T06:34:47.315Z,25.17
2018-12-29T06:37:15.747Z,26.40
2018-12-29T06:39:44.212Z,28.47
2018-12-29T06:42:31.985Z,26.97
2018-12-29T06:45:00.447Z,26.07
2018-12-29T06:47:30.968Z,28.87
2018-12-29T06:49:59.435Z,27.10
2018-12-29T06:52:27.876Z,27.50
2018-12-29T06:54:56.311Z,27.53
2018-12-29T06:57:24.768Z,25.77
2018-12-29T06:59:53.199Z,28.63
2018-12-29T07:02:21.651Z,27.97
2018-12-29T07:04:50.080Z,26.50
2018-12-29T07:07:18.533Z,28.60
2018-12-29T07:10:06.317Z,28.33
2018-12-29T07:12:34.780Z,27.70
2018-12-29T07:15:03.226Z,28.00
2018-12-29T07:17:31.715Z,28.33
2018-12-29T07:20:00.264Z,29.00
2018-12-29T07:22:28.797Z,28.73
2018-12-29T07:24:57.227Z,27.47
2018-12-29T07:27:26.648Z,26.30
2018-12-29T07:29:55.103Z,29.07
2018-12-29T07:32:23.543Z,29.93
2018-12-29T07:34:52.008Z,26.33
2018-12-29T07:37:20.436Z,26.53
2018-12-29T07:39:48.905Z,27.80
2018-12-29T07:42:17.403Z,25.77
2018-12-29T07:44:45.856Z,26.40
2018-12-29T07:47:14.302Z,26.93
2018-12-29T07:50:02.100Z,28.83
2018-12-29T07:52:30.531Z,25.83
2018-12-29T07:54:58.994Z,26.30
2018-12-29T07:57:27.433Z,25.00
2018-12-29T07:59:55.876Z,27.20
2018-12-29T08:02:24.328Z,27.07
2018-12-29T08:04:52.778Z,26.60
2018-12-29T08:07:21.372Z,26.77
2018-12-29T08:09:49.809Z,26.80
2018-12-29T08:12:18.280Z,25.40
2018-12-29T08:14:46.711Z,26.70
2018-12-29T08:17:15.177Z,29.10
2018-12-29T08:19:43.604Z,26.43
2018-12-29T08:22:12.059Z,25.37
2018-12-29T08:24:40.505Z,27.00
2018-12-29T08:27:08.956Z,26.97
2018-12-29T08:29:37.396Z,26.23
2018-12-29T08:32:05.841Z,26.97
2018-12-29T08:34:34.318Z,24.40
2018-12-29T08:37:02.827Z,25.90
2018-12-29T08:39:31.272Z,25.37
2018-12-29T08:41:59.712Z,25.80
2018-12-29T08:44:28.163Z,27.80
2018-12-29T08:46:56.686Z,25.17
2018-12-29T08:49:26.116Z,24.43
2018-12-29T08:51:54.619Z,25.90
2018-12-29T08:54:23.072Z,24.87
2018-12-29T08:56:51.525Z,24.97
2018-12-29T08:59:19.992Z,25.57
2018-12-29T09:01:48.423Z,23.30
2018-12-29T09:04:16.859Z,23.90
2018-12-29T09:06:45.324Z,23.43
2018-12-29T09:09:13.777Z,23.87
2018-12-29T09:11:42.565Z,25.97
2018-12-29T09:14:11.005Z,23.97
2018-12-29T09:16:39.471Z,22.83
2018-12-29T09:19:07.915Z,24.77
2018-12-29T09:21:36.376Z,24.20
2018-12-29T09:24:04.809Z,26.07
2018-12-29T09:26:33.251Z,24.70
2018-12-29T09:29:01.722Z,24.90
2018-12-29T09:31:30.163Z,23.80
2018-12-29T09:33:58.620Z,25.37
2018-12-29T09:36:27.065Z,24.67
2018-12-29T09:38:55.517Z,25.07
2018-12-29T09:41:23.955Z,25.40
2018-12-29T09:43:52.480Z,23.93
2018-12-29T09:46:20.917Z,25.20
2018-12-29T09:48:49.372Z,23.50
2018-12-29T09:51:17.814Z,24.97
2018-12-29T09:53:46.255Z,24.93
2018-12-29T09:56:14.695Z,24.77
2018-12-29T09:58:43.139Z,24.80
2018-12-29T10:01:11.596Z,22.77
2018-12-29T10:03:40.032Z,23.17
2018-12-29T10:06:08.532Z,22.37
2018-12-29T10:08:36.972Z,23.47
2018-12-29T10:11:05.495Z,22.10
2018-12-29T10:13:36.011Z,24.17
2018-12-29T10:16:06.545Z,22.03
2018-12-29T10:18:35.043Z,23.10
2018-12-29T10:21:03.477Z,21.97
2018-12-29T10:23:31.933Z,22.10
2018-12-29T10:26:00.371Z,22.00
2018-12-29T10:28:28.818Z,22.27
2018-12-29T10:30:58.263Z,22.80
2018-12-29T10:33:32.673Z,23.30
2018-12-29T10:36:02.190Z,23.40
2018-12-29T10:38:30.629Z,23.20
2018-12-29T10:40:59.091Z,21.37
2018-12-29T10:43:27.529Z,22.10
2018-12-29T10:45:55.996Z,22.10
2018-12-29T10:48:24.436Z,22.37
2018-12-29T10:50:52.954Z,20.37
2018-12-29T10:53:21.408Z,21.07
2018-12-29T10:55:49.950Z,20.13
2018-12-29T10:58:18.416Z,20.63
2018-12-29T11:00:46.872Z,21.83
2018-12-29T11:03:15.352Z,20.93
2018-12-29T11:05:43.805Z,20.37
2018-12-29T11:08:12.318Z,24.03
2018-12-29T11:10:40.847Z,19.17
2018-12-29T11:13:09.307Z,21.70
2018-12-29T11:15:37.811Z,21.47
2018-12-29T11:18:06.302Z,21.70
2018-12-29T11:20:34.751Z,20.87
2018-12-29T11:23:03.205Z,21.20
2018-12-29T11:25:31.648Z,20.30
2018-12-29T11:28:00.092Z,18.67
2018-12-29T11:30:28.939Z,19.07
2018-12-29T11:32:57.432Z,18.53
2018-12-29T11:35:29.063Z,17.20
2018-12-29T11:37:56.060Z,19.13
2018-12-29T11:40:43.848Z,20.00
2018-12-29T11:43:12.295Z,18.80
2018-12-29T11:45:40.740Z,19.97
2018-12-29T11:48:09.191Z,19.80
2018-12-29T11:50:37.639Z,18.33
2018-12-29T11:53:06.098Z,19.47
2018-12-29T11:55:34.598Z,19.77
2018-12-29T11:58:03.316Z,19.90
2018-12-29T12:00:31.950Z,19.80
2018-12-29T12:03:00.458Z,20.33
2018-12-29T12:05:28.914Z,20.27
2018-12-29T12:07:57.419Z,20.60
2018-12-29T12:10:26.025Z,19.07
2018-12-29T12:12:54.537Z,19.33
2018-12-29T12:15:23.091Z,18.00
2018-12-29T12:17:57.565Z,18.57
2018-12-29T12:20:21.806Z,18.97
2018-12-29T12:22:50.383Z,18.10
2018-12-29T12:25:18.859Z,19.00
2018-12-29T12:27:47.693Z,18.40
2018-12-29T12:30:16.199Z,18.10
2018-12-29T12:32:44.744Z,18.30
2018-12-29T12:35:13.254Z,18.67
2018-12-29T12:37:41.797Z,19.20
2018-12-29T12:40:10.328Z,29.13
2018-12-29T12:42:38.876Z,18.33
2018-12-29T12:45:07.434Z,19.57
2018-12-29T12:47:35.958Z,14.30
2018-12-29T12:50:05.056Z,12.80
2018-12-29T12:52:33.872Z,12.90
2018-12-29T12:55:03.477Z,11.70
2018-12-29T12:57:31.993Z,11.30
2018-12-29T13:00:00.920Z,11.17
2018-12-29T13:02:29.756Z,12.67
2018-12-29T13:04:58.267Z,13.57
2018-12-29T13:07:27.865Z,13.03
2018-12-29T13:09:56.468Z,13.23
2018-12-29T13:12:25.004Z,13.90
2018-12-29T13:14:53.457Z,15.57
2018-12-29T13:17:22.975Z,14.40
2018-12-29T13:19:51.432Z,15.20
2018-12-29T13:22:19.870Z,13.13
2018-12-29T13:24:48.404Z,12.53
2018-12-29T13:27:16.922Z,15.13
2018-12-29T13:29:45.467Z,11.70
2018-12-29T13:32:13.966Z,9.57
2018-12-29T13:34:42.509Z,10.43
2018-12-29T13:37:11.055Z,10.40
2018-12-29T13:39:39.947Z,9.80
2018-12-29T13:42:08.513Z,9.93
2018-12-29T13:44:37.044Z,10.50
2018-12-29T13:47:05.587Z,11.00
2018-12-29T13:49:34.113Z,10.50
2018-12-29T13:52:02.723Z,9.43
2018-12-29T13:54:31.243Z,10.80
2018-12-29T13:56:59.770Z,11.10
2018-12-29T13:59:28.299Z,10.87
2018-12-29T14:01:56.750Z,11.70
2018-12-29T14:04:25.216Z,11.33
2018-12-29T14:06:53.735Z,11.47
2018-12-29T14:09:22.253Z,10.57
2018-12-29T14:11:51.851Z,13.27
2018-12-29T14:14:20.363Z,11.77
2018-12-29T14:16:48.908Z,11.53
2018-12-29T14:19:17.349Z,12.27
2018-12-29T14:21:45.877Z,13.00
2018-12-29T14:24:14.315Z,11.73
2018-12-29T14:26:42.799Z,10.50
2018-12-29T14:29:11.384Z,11.47
2018-12-29T14:31:39.821Z,9.60
2018-12-29T14:34:08.347Z,9.07
2018-12-29T14:36:36.775Z,9.13
2018-12-29T14:39:06.242Z,10.13
2018-12-29T14:41:34.745Z,9.97
2018-12-29T14:44:15.779Z,10.27
2018-12-29T14:46:44.299Z,10.60
2018-12-29T14:49:12.745Z,10.60
2018-12-29T14:51:41.275Z,11.57
2018-12-29T14:54:09.795Z,11.03
2018-12-29T14:56:38.275Z,11.00
2018-12-29T14:59:06.716Z,10.50
2018-12-29T15:01:35.459Z,10.50
2018-12-29T15:04:03.892Z,10.80
2018-12-29T15:06:32.404Z,11.10
2018-12-29T15:09:00.930Z,11.27
2018-12-29T15:11:29.401Z,12.50
2018-12-29T15:13:57.932Z,10.93
2018-12-29T15:16:29.480Z,11.00
2018-12-29T15:18:57.998Z,9.50
2018-12-29T15:21:26.609Z,9.50
2018-12-29T15:24:14.467Z,9.10
2018-12-29T15:26:43.964Z,8.90
2018-12-29T15:29:12.668Z,8.37
2018-12-29T15:31:42.195Z,8.10
2018-12-29T15:34:19.265Z,8.50
2018-12-29T15:36:47.735Z,8.80
2018-12-29T15:39:16.168Z,7.93
2018-12-29T15:41:44.691Z,8.10
2018-12-29T15:44:13.195Z,7.80
2018-12-29T15:46:47.403Z,6.53
2018-12-29T15:49:21.594Z,6.87
2018-12-29T15:51:50.134Z,6.50
2018-12-29T15:54:18.639Z,6.90
2018-12-29T15:56:47.151Z,7.93
2018-12-29T15:59:15.688Z,6.80
2018-12-29T16:01:44.213Z,7.23
2018-12-29T16:04:12.737Z,6.63
2018-12-29T16:06:41.239Z,5.90
2018-12-29T16:09:09.784Z,7.53
2018-12-29T16:11:39.926Z,7.67
2018-12-29T16:14:08.465Z,7.50
2018-12-29T16:16:38.313Z,8.87
2018-12-29T16:19:06.963Z,7.77
2018-12-29T16:21:35.501Z,6.90
2018-12-29T16:24:03.985Z,7.67
2018-12-29T16:26:32.525Z,6.33
2018-12-29T16:29:01.072Z,5.70
2018-12-29T16:31:29.620Z,6.63
2018-12-29T16:33:58.128Z,5.33
2018-12-29T16:36:27.015Z,7.60
2018-12-29T16:38:55.443Z,5.80
2018-12-29T16:41:23.956Z,6.10
2018-12-29T16:43:52.810Z,7.23
2018-12-29T16:46:21.322Z,7.40
2018-12-29T16:48:49.856Z,6.67
2018-12-29T16:51:18.350Z,6.17
2018-12-29T16:53:47.295Z,7.20
2018-12-29T16:56:15.735Z,6.23
2018-12-29T16:58:44.246Z,7.03
2018-12-29T17:01:12.779Z,8.43
2018-12-29T17:03:41.586Z,7.50
2018-12-29T17:06:10.114Z,8.10
2018-12-29T17:08:38.623Z,8.00
2018-12-29T17:11:07.144Z,6.90
2018-12-29T17:13:55.389Z,7.47
2018-12-29T17:16:23.929Z,7.80
2018-12-29T17:18:52.460Z,6.23
2018-12-29T17:21:20.892Z,7.33
2018-12-29T17:23:49.823Z,8.30
2018-12-29T17:26:19.317Z,7.47
2018-12-29T17:28:47.940Z,7.40
2018-12-29T17:31:16.723Z,7.23
2018-12-29T17:33:45.263Z,8.40
2018-12-29T17:36:13.794Z,7.60
2018-12-29T17:38:42.308Z,8.50
2018-12-29T17:41:11.349Z,7.50
2018-12-29T17:43:39.940Z,7.87
2018-12-29T17:46:08.451Z,7.50
2018-12-29T17:48:36.997Z,7.80
2018-12-29T17:51:05.479Z,6.90
2018-12-29T17:53:34.304Z,7.80
2018-12-29T17:56:02.843Z,7.13
2018-12-29T17:58:31.341Z,7.93
2018-12-29T18:01:05.856Z,8.23
2018-12-29T18:03:34.373Z,8.17
2018-12-29T18:06:02.896Z,7.80
2018-12-29T18:08:31.403Z,7.13
2018-12-29T18:10:59.941Z,7.30
2018-12-29T18:13:28.455Z,7.73
2018-12-29T18:15:56.983Z,8.57
2018-12-29T18:18:25.480Z,7.33
2018-12-29T18:20:54.158Z,7.53
2018-12-29T18:23:22.648Z,7.70
2018-12-29T18:25:51.161Z,8.80
2018-12-29T18:28:19.683Z,8.40
2018-12-29T18:30:48.200Z,8.77
2018-12-29T18:33:17.032Z,9.77
2018-12-29T18:35:45.615Z,10.03
2018-12-29T18:38:14.131Z,8.70
2018-12-29T18:40:42.718Z,10.27
2018-12-29T18:43:11.258Z,10.37
2018-12-29T18:45:39.769Z,11.80
2018-12-29T18:48:08.399Z,12.20
2018-12-29T18:50:36.920Z,11.67
2018-12-29T18:53:05.599Z,11.30
2018-12-29T18:55:34.134Z,12.70
2018-12-29T18:58:02.751Z,13.50
2018-12-29T19:00:31.470Z,12.53
2018-12-29T19:02:59.947Z,13.83
2018-12-29T19:05:28.479Z,14.73
2018-12-29T19:07:57.010Z,15.83
2018-12-29T19:10:25.552Z,15.20
2018-12-29T19:12:54.138Z,14.70
2018-12-29T19:15:23.144Z,17.03
2018-12-29T19:17:52.103Z,16.50
2018-12-29T19:20:21.017Z,16.20
2018-12-29T19:22:49.563Z,16.80
2018-12-29T19:25:18.082Z,16.90
2018-12-29T19:28:05.946Z,16.70
2018-12-29T19:30:34.855Z,17.80
2018-12-29T19:33:03.758Z,18.87
2018-12-29T19:35:32.268Z,18.70
2018-12-29T19:38:00.821Z,17.77
2018-12-29T19:40:29.638Z,18.70
2018-12-29T19:42:58.567Z,19.90
2018-12-29T19:45:27.086Z,19.03
2018-12-29T19:47:56.015Z,19.50
2018-12-29T19:50:24.832Z,21.00
2018-12-29T19:52:53.367Z,21.10
2018-12-29T19:55:21.876Z,20.70
2018-12-29T19:57:50.403Z,19.87
2018-12-29T20:00:19.118Z,20.90
2018-12-29T20:02:47.876Z,22.57
2018-12-29T20:05:16.771Z,20.63
2018-12-29T20:07:46.278Z,21.83
2018-12-29T20:10:34.193Z,22.17
2018-12-29T20:13:03.094Z,22.73
2018-12-29T20:15:31.544Z,21.40
2018-12-29T20:18:00.046Z,22.23
2018-12-29T20:20:28.571Z,21.20
2018-12-29T20:22:57.144Z,23.67
2018-12-29T20:25:25.644Z,20.93
2018-12-29T20:27:54.088Z,22.20
2018-12-29T20:30:22.620Z,24.00
2018-12-29T20:32:58.938Z,22.93
2018-12-29T20:35:21.397Z,22.27
2018-12-29T20:37:49.836Z,23.90
2018-12-29T20:40:18.368Z,20.73
2018-12-29T20:42:46.884Z,23.00
2018-12-29T20:45:15.418Z,21.93
2018-12-29T20:47:43.940Z,23.00
2018-12-29T20:50:12.469Z,24.77
2018-12-29T20:52:41.379Z,22.33
2018-12-29T20:55:09.917Z,23.80
2018-12-29T20:57:38.419Z,23.93
2018-12-29T21:00:09.385Z,23.23
2018-12-29T21:02:37.831Z,24.67
2018-12-29T21:05:06.511Z,22.97
2018-12-29T21:07:35.043Z,24.60
2018-12-29T21:10:04.140Z,22.87
2018-12-29T21:12:32.612Z,23.00
2018-12-29T21:15:01.128Z,22.57
2018-12-29T21:17:29.685Z,24.47
2018-12-29T21:19:58.579Z,21.13
2018-12-29T21:22:27.103Z,22.67
2018-12-29T21:24:55.621Z,21.50
2018-12-29T21:27:24.183Z,21.57
2018-12-29T21:29:52.791Z,23.70
2018-12-29T21:32:40.659Z,19.70
2018-12-29T21:35:09.171Z,21.40
2018-12-29T21:37:37.703Z,21.40
2018-12-29T21:40:07.250Z,22.13
2018-12-29T21:42:35.755Z,18.90
2018-12-29T21:45:04.372Z,20.83
2018-12-29T21:47:33.873Z,21.27
2018-12-29T21:50:02.460Z,22.90
2018-12-29T21:52:30.907Z,20.30
2018-12-29T21:54:59.439Z,20.90
2018-12-29T21:57:47.590Z,19.87
2018-12-29T22:00:16.116Z,21.00
2018-12-29T22:02:44.626Z,18.10
2018-12-29T22:05:13.165Z,17.73
2018-12-29T22:07:41.887Z,17.33
2018-12-29T22:10:10.432Z,15.63
2018-12-29T22:12:38.959Z,16.43
2018-12-29T22:15:08.080Z,17.13
2018-12-29T22:17:36.607Z,13.57
2018-12-29T22:20:06.668Z,12.40
2018-12-29T22:22:35.198Z,12.00
2018-12-29T22:25:04.108Z,11.20
2018-12-29T22:27:32.741Z,9.37
2018-12-29T22:30:07.634Z,13.70
2018-12-29T22:32:36.166Z,13.03
2018-12-29T22:35:16.943Z,13.67
2018-12-29T22:37:45.512Z,12.40
2018-12-29T22:40:14.042Z,12.47
2018-12-29T22:42:42.572Z,10.00
2018-12-29T22:45:16.991Z,9.83
2018-12-29T22:47:45.496Z,5.57
2018-12-29T22:50:14.026Z,5.07
2018-12-29T22:52:42.526Z,4.30
2018-12-29T22:55:12.039Z,3.40
2018-12-29T22:57:40.658Z,3.20
2018-12-29T23:00:13.680Z,3.87
2018-12-29T23:02:42.187Z,3.30
2018-12-29T23:05:10.660Z,2.73
2018-12-29T23:07:39.167Z,2.93
2018-12-29T23:10:07.707Z,2.70
2018-12-29T23:12:36.219Z,3.40
2018-12-29T23:15:05.388Z,2.63
2018-12-29T23:17:33.929Z,2.60
2018-12-29T23:20:02.449Z,2.70
2018-12-29T23:22:31.279Z,2.60
2018-12-29T23:25:19.127Z,2.33
2018-12-29T23:27:47.657Z,2.70
2018-12-29T23:30:16.172Z,2.47
2018-12-29T23:32:44.895Z,2.33
2018-12-29T23:35:13.403Z,1.87
2018-12-29T23:37:41.924Z,2.20
2018-12-29T23:40:29.777Z,2.40
2018-12-29T23:42:58.346Z,2.30
2018-12-29T23:45:26.859Z,2.40
2018-12-29T23:47:55.423Z,2.50
2018-12-29T23:50:23.959Z,2.17
2018-12-29T23:52:52.874Z,2.47
2018-12-29T23:55:21.806Z,2.00
2018-12-29T23:57:50.307Z,3.10
